Mostly Cloudy Current Weather (METAR) For London Heathrow Airport

All times on the weather descriptions are local

Observed at 18:50 - (9 mins ago)

Mostly Cloudy

17°C

Mostly Cloudy
Clouds: Broken Clouds at 1,100ft
Wind: 020° at 07 knots, varying from 350° to 050
Visibility: 9,000m
QNH: 1018
Dew Point: 14°C
Runway in Use: Likely Runways 09L/R

Sunrise Today: 06:43
Sunset Today: 19:06

Forecast Weather (TAF) For London Heathrow Airport

Issued at 01:00 - (9 days 6 hrs ago)


Runway in Use: Likely Runways 27L/R

Forecast valid until 01:00 on Tuesday

METAR/TAF RAW METAR / TAF

EGLL 201750Z AUTO 02007KT 350V050 9000 BKN011 17/14 Q1018

Weather Widget

Put weather from any of our airports on your website with our weather widget.

Find Another Search

Airport Search


Please Wait Please Wait - Loading
Close
Close

Login

Username:

Password:

Remember Me:

Remember me on this computer

Forgotten your password? Get a reset password sent to your registered e-mail address

Close

User Private Message

Subject:

Message: